aviador You're here:

PASL Decoded Metar

SLEETMUTE in AK, USA
Report Time2018-02-22 12:28:00
UTC Time2018-02-22 14:54:58
Flight Rules Old
WindCalm
Visibility9999 m
Phenomena:N/A
Clouds:Scattered 008 Hf
Broken 026 Hf
Expected CloudBase > 400 ft AGL from Temp-Dew spread
Ceiling2,600 ft
Temp01°C (ISA -14)
Dew Point00°C (93% RH)
AAT-1.0°C
QNH1017 hPa
Density Alt-1,535 ft
Elevation180 ft
Report Wrong Elevation
Raw Report
PASL 221228Z AUTO 00000KT 10SM SCT008 BKN026 01/00 A3002 RMK AO2
FZRANO=

Extra information for PASL:More info

Metar Taf Metar & Taf Last 4 Metars F.Rules Stats Wind Profile Meteogram Temp Stats Airport Information Weather charts Add Link Nearby VenuesMetar ALERT Operation Metar Decoded Social comments

AIRNAV info for PASL